sensor_id;sensor_type;location;lat;lon;timestamp;temperature;humidity
16327;DHT22;34812;49.846;9.610;2022-09-09T00:00:14;12.00;99.90
16327;DHT22;34812;49.846;9.610;2022-09-09T00:01:26;12.00;99.90
16327;DHT22;34812;49.846;9.610;2022-09-09T00:02:28;12.00;99.90
16327;DHT22;34812;49.846;9.610;2022-09-09T00:03:37;12.10;99.90
16327;DHT22;34812;49.846;9.610;2022-09-09T00:04:41;12.10;99.90
16327;DHT22;34812;49.846;9.610;2022-09-09T00:05:48;12.10;99.90
16327;DHT22;34812;49.846;9.610;2022-09-09T00:07:00;12.20;99.90
16327;DHT22;34812;49.846;9.610;2022-09-09T00:08:04;12.20;99.90
16327;DHT22;34812;49.846;9.610;2022-09-09T00:09:10;12.20;99.90
16327;DHT22;34812;49.846;9.610;2022-09-09T00:10:18;12.20;99.90
16327;DHT22;34812;49.846;9.610;2022-09-09T00:11:27;12.30;99.90
16327;DHT22;34812;49.846;9.610;2022-09-09T00:12:36;12.30;99.90
16327;DHT22;34812;49.846;9.610;2022-09-09T00:13:43;12.30;99.90
16327;DHT22;34812;49.846;9.610;2022-09-09T00:14:51;12.30;99.90
16327;DHT22;34812;49.846;9.610;2022-09-09T00:15:57;12.30;99.90
16327;DHT22;34812;49.846;9.610;2022-09-09T00:17:03;12.30;99.90
16327;DHT22;34812;49.846;9.610;2022-09-09T00:18:14;12.30;99.90
16327;DHT22;34812;49.846;9.610;2022-09-09T00:19:22;12.40;99.90
16327;DHT22;34812;49.846;9.610;2022-09-09T00:20:29;12.40;99.90
16327;DHT22;34812;49.846;9.610;2022-09-09T00:21:34;12.40;99.90
16327;DHT22;34812;49.846;9.610;2022-09-09T00:22:36;12.40;99.90
16327;DHT22;34812;49.846;9.610;2022-09-09T00:23:44;12.40;99.90
16327;DHT22;34812;49.846;9.610;2022-09-09T00:24:51;12.40;99.90
16327;DHT22;34812;49.846;9.610;2022-09-09T00:26:00;12.40;99.90
16327;DHT22;34812;49.846;9.610;2022-09-09T00:27:11;12.40;99.90
16327;DHT22;34812;49.846;9.610;2022-09-09T00:28:19;12.40;99.90
16327;DHT22;34812;49.846;9.610;2022-09-09T00:29:25;12.40;99.90
16327;DHT22;34812;49.846;9.610;2022-09-09T00:30:33;12.50;99.90
16327;DHT22;34812;49.846;9.610;2022-09-09T00:31:35;12.50;99.90
16327;DHT22;34812;49.846;9.610;2022-09-09T00:32:38;12.50;99.90
16327;DHT22;34812;49.846;9.610;2022-09-09T00:33:40;12.50;99.90
16327;DHT22;34812;49.846;9.610;2022-09-09T00:34:49;12.50;99.90
16327;DHT22;34812;49.846;9.610;2022-09-09T00:35:52;12.50;99.90
16327;DHT22;34812;49.846;9.610;2022-09-09T00:36:56;12.50;99.90
16327;DHT22;34812;49.846;9.610;2022-09-09T00:38:01;12.40;99.90
16327;DHT22;34812;49.846;9.610;2022-09-09T00:39:05;12.40;99.90
16327;DHT22;34812;49.846;9.610;2022-09-09T00:40:18;12.40;99.90
16327;DHT22;34812;49.846;9.610;2022-09-09T00:41:31;12.40;99.90
16327;DHT22;34812;49.846;9.610;2022-09-09T00:42:40;12.40;99.90
16327;DHT22;34812;49.846;9.610;2022-09-09T00:43:49;12.30;99.90
16327;DHT22;34812;49.846;9.610;2022-09-09T00:44:58;12.30;99.90
16327;DHT22;34812;49.846;9.610;2022-09-09T00:46:32;12.30;99.90
16327;DHT22;34812;49.846;9.610;2022-09-09T00:47:44;12.30;99.90
16327;DHT22;34812;49.846;9.610;2022-09-09T00:48:52;12.30;99.90
16327;DHT22;34812;49.846;9.610;2022-09-09T00:50:00;12.30;99.90
16327;DHT22;34812;49.846;9.610;2022-09-09T00:51:09;12.30;99.90
16327;DHT22;34812;49.846;9.610;2022-09-09T00:52:22;12.20;99.90
16327;DHT22;34812;49.846;9.610;2022-09-09T00:53:33;12.20;99.90
16327;DHT22;34812;49.846;9.610;2022-09-09T00:54:46;12.20;99.90
16327;DHT22;34812;49.846;9.610;2022-09-09T00:55:51;12.10;99.90
16327;DHT22;34812;49.846;9.610;2022-09-09T00:58:16;12.10;99.90
16327;DHT22;34812;49.846;9.610;2022-09-09T00:59:27;12.10;99.90
16327;DHT22;34812;49.846;9.610;2022-09-09T01:00:31;12.10;99.90
16327;DHT22;34812;49.846;9.610;2022-09-09T01:01:37;12.00;99.90
16327;DHT22;34812;49.846;9.610;2022-09-09T01:02:46;12.00;99.90
16327;DHT22;34812;49.846;9.610;2022-09-09T01:03:53;12.00;99.90
16327;DHT22;34812;49.846;9.610;2022-09-09T01:05:01;11.90;99.90
16327;DHT22;34812;49.846;9.610;2022-09-09T01:06:14;11.90;99.90
16327;DHT22;34812;49.846;9.610;2022-09-09T01:07:18;11.90;99.90
16327;DHT22;34812;49.846;9.610;2022-09-09T01:08:33;11.90;99.90
16327;DHT22;34812;49.846;9.610;2022-09-09T01:09:50;11.90;99.90
16327;DHT22;34812;49.846;9.610;2022-09-09T01:10:53;11.90;99.90
16327;DHT22;34812;49.846;9.610;2022-09-09T01:12:01;11.90;99.90
16327;DHT22;34812;49.846;9.610;2022-09-09T01:13:08;12.00;99.90
16327;DHT22;34812;49.846;9.610;2022-09-09T01:14:22;12.00;99.90
16327;DHT22;34812;49.846;9.610;2022-09-09T01:15:29;11.90;99.90
16327;DHT22;34812;49.846;9.610;2022-09-09T01:16:32;11.90;99.90
16327;DHT22;34812;49.846;9.610;2022-09-09T01:17:36;11.90;99.90
16327;DHT22;34812;49.846;9.610;2022-09-09T01:18:44;11.90;99.90
16327;DHT22;34812;49.846;9.610;2022-09-09T01:19:54;12.00;99.90
16327;DHT22;34812;49.846;9.610;2022-09-09T01:21:04;12.00;99.90
16327;DHT22;34812;49.846;9.610;2022-09-09T01:22:15;12.00;99.90
16327;DHT22;34812;49.846;9.610;2022-09-09T01:23:30;12.00;99.90
16327;DHT22;34812;49.846;9.610;2022-09-09T01:24:39;12.00;99.90
16327;DHT22;34812;49.846;9.610;2022-09-09T01:26:19;12.00;99.90
16327;DHT22;34812;49.846;9.610;2022-09-09T01:27:23;11.90;99.90
16327;DHT22;34812;49.846;9.610;2022-09-09T01:28:27;11.90;99.90
16327;DHT22;34812;49.846;9.610;2022-09-09T01:29:29;11.90;99.90
16327;DHT22;34812;49.846;9.610;2022-09-09T01:30:31;11.90;99.90
16327;DHT22;34812;49.846;9.610;2022-09-09T01:31:38;11.90;99.90
16327;DHT22;34812;49.846;9.610;2022-09-09T01:32:42;11.90;99.90
16327;DHT22;34812;49.846;9.610;2022-09-09T01:33:44;11.90;99.90
16327;DHT22;34812;49.846;9.610;2022-09-09T01:34:45;11.90;99.90
16327;DHT22;34812;49.846;9.610;2022-09-09T01:35:50;11.90;99.90
16327;DHT22;34812;49.846;9.610;2022-09-09T01:36:58;11.80;99.90
16327;DHT22;34812;49.846;9.610;2022-09-09T01:38:01;11.80;99.90
16327;DHT22;34812;49.846;9.610;2022-09-09T01:39:02;11.80;99.90
16327;DHT22;34812;49.846;9.610;2022-09-09T01:40:05;11.90;99.90
16327;DHT22;34812;49.846;9.610;2022-09-09T01:41:07;11.90;99.90
16327;DHT22;34812;49.846;9.610;2022-09-09T01:42:12;11.80;99.90
16327;DHT22;34812;49.846;9.610;2022-09-09T01:43:14;11.90;99.90
16327;DHT22;34812;49.846;9.610;2022-09-09T01:44:16;11.80;99.90
16327;DHT22;34812;49.846;9.610;2022-09-09T01:45:18;11.80;99.90
16327;DHT22;34812;49.846;9.610;2022-09-09T01:46:21;11.80;99.90
16327;DHT22;34812;49.846;9.610;2022-09-09T01:47:22;11.80;99.90
16327;DHT22;34812;49.846;9.610;2022-09-09T01:48:25;11.80;99.90
16327;DHT22;34812;49.846;9.610;2022-09-09T01:49:26;11.80;99.90
16327;DHT22;34812;49.846;9.610;2022-09-09T01:50:27;11.90;99.90
16327;DHT22;34812;49.846;9.610;2022-09-09T01:51:28;11.90;99.90
16327;DHT22;34812;49.846;9.610;2022-09-09T01:52:31;11.90;99.90
16327;DHT22;34812;49.846;9.610;2022-09-09T01:53:34;11.90;99.90
16327;DHT22;34812;49.846;9.610;2022-09-09T01:54:36;12.00;99.90
16327;DHT22;34812;49.846;9.610;2022-09-09T01:55:39;12.00;99.90
16327;DHT22;34812;49.846;9.610;2022-09-09T01:56:49;12.00;99.90
16327;DHT22;34812;49.846;9.610;2022-09-09T01:58:03;12.00;99.90
16327;DHT22;34812;49.846;9.610;2022-09-09T01:59:29;12.00;99.90
16327;DHT22;34812;49.846;9.610;2022-09-09T02:00:37;12.10;99.90
16327;DHT22;34812;49.846;9.610;2022-09-09T02:01:49;12.10;99.90
16327;DHT22;34812;49.846;9.610;2022-09-09T02:03:00;12.20;99.90
16327;DHT22;34812;49.846;9.610;2022-09-09T02:04:17;12.20;99.90
16327;DHT22;34812;49.846;9.610;2022-09-09T02:05:27;12.20;99.90
16327;DHT22;34812;49.846;9.610;2022-09-09T02:06:35;12.20;99.90
16327;DHT22;34812;49.846;9.610;2022-09-09T02:07:39;12.20;99.90
16327;DHT22;34812;49.846;9.610;2022-09-09T02:08:43;12.20;99.90
16327;DHT22;34812;49.846;9.610;2022-09-09T02:09:49;12.20;99.90
16327;DHT22;34812;49.846;9.610;2022-09-09T02:10:56;12.30;99.90
16327;DHT22;34812;49.846;9.610;2022-09-09T02:12:05;12.30;99.90
16327;DHT22;34812;49.846;9.610;2022-09-09T02:13:11;12.30;99.90
16327;DHT22;34812;49.846;9.610;2022-09-09T02:14:16;12.40;99.90
16327;DHT22;34812;49.846;9.610;2022-09-09T02:15:22;12.40;99.90
16327;DHT22;34812;49.846;9.610;2022-09-09T02:16:27;12.40;99.90
16327;DHT22;34812;49.846;9.610;2022-09-09T02:17:33;12.40;99.90
16327;DHT22;34812;49.846;9.610;2022-09-09T02:18:37;12.40;99.90
16327;DHT22;34812;49.846;9.610;2022-09-09T02:19:44;12.40;99.90
16327;DHT22;34812;49.846;9.610;2022-09-09T02:20:46;12.40;99.90
16327;DHT22;34812;49.846;9.610;2022-09-09T02:21:49;12.40;99.90
16327;DHT22;34812;49.846;9.610;2022-09-09T02:22:51;12.40;99.90
16327;DHT22;34812;49.846;9.610;2022-09-09T02:23:55;12.40;99.90
16327;DHT22;34812;49.846;9.610;2022-09-09T02:24:59;12.40;99.90
16327;DHT22;34812;49.846;9.610;2022-09-09T02:26:02;12.40;99.90
16327;DHT22;34812;49.846;9.610;2022-09-09T02:27:08;12.40;99.90
16327;DHT22;34812;49.846;9.610;2022-09-09T02:28:11;12.40;99.90
16327;DHT22;34812;49.846;9.610;2022-09-09T02:29:17;12.40;99.90
16327;DHT22;34812;49.846;9.610;2022-09-09T02:30:20;12.40;99.90
16327;DHT22;34812;49.846;9.610;2022-09-09T02:31:22;12.40;99.90
16327;DHT22;34812;49.846;9.610;2022-09-09T02:32:26;12.40;99.90
16327;DHT22;34812;49.846;9.610;2022-09-09T02:33:32;12.30;99.90
16327;DHT22;34812;49.846;9.610;2022-09-09T02:34:40;12.30;99.90
16327;DHT22;34812;49.846;9.610;2022-09-09T02:35:42;12.40;99.90
16327;DHT22;34812;49.846;9.610;2022-09-09T02:36:46;12.30;99.90
16327;DHT22;34812;49.846;9.610;2022-09-09T02:37:48;12.30;99.90
16327;DHT22;34812;49.846;9.610;2022-09-09T02:38:52;12.30;99.90
16327;DHT22;34812;49.846;9.610;2022-09-09T02:39:54;12.30;99.90
16327;DHT22;34812;49.846;9.610;2022-09-09T02:40:56;12.30;99.90
16327;DHT22;34812;49.846;9.610;2022-09-09T02:41:56;12.20;99.90
16327;DHT22;34812;49.846;9.610;2022-09-09T02:43:00;12.20;99.90
16327;DHT22;34812;49.846;9.610;2022-09-09T02:44:01;12.20;99.90
16327;DHT22;34812;49.846;9.610;2022-09-09T02:45:03;12.20;99.90
16327;DHT22;34812;49.846;9.610;2022-09-09T02:46:15;12.20;99.90
16327;DHT22;34812;49.846;9.610;2022-09-09T02:47:26;12.20;99.90
16327;DHT22;34812;49.846;9.610;2022-09-09T02:48:35;12.20;99.90
16327;DHT22;34812;49.846;9.610;2022-09-09T02:49:43;12.20;99.90
16327;DHT22;34812;49.846;9.610;2022-09-09T02:50:54;12.10;99.90
16327;DHT22;34812;49.846;9.610;2022-09-09T02:52:01;12.10;99.90
16327;DHT22;34812;49.846;9.610;2022-09-09T02:53:09;12.10;99.90
16327;DHT22;34812;49.846;9.610;2022-09-09T02:54:19;12.10;99.90
16327;DHT22;34812;49.846;9.610;2022-09-09T02:55:27;12.00;99.90
16327;DHT22;34812;49.846;9.610;2022-09-09T02:56:37;12.00;99.90
16327;DHT22;34812;49.846;9.610;2022-09-09T02:57:39;11.90;99.90
16327;DHT22;34812;49.846;9.610;2022-09-09T02:58:43;11.90;99.90
16327;DHT22;34812;49.846;9.610;2022-09-09T02:59:45;11.90;99.90
16327;DHT22;34812;49.846;9.610;2022-09-09T03:00:49;11.90;99.90
16327;DHT22;34812;49.846;9.610;2022-09-09T03:01:50;11.90;99.90
16327;DHT22;34812;49.846;9.610;2022-09-09T03:02:52;11.90;99.90
16327;DHT22;34812;49.846;9.610;2022-09-09T03:03:54;11.80;99.90
16327;DHT22;34812;49.846;9.610;2022-09-09T03:04:56;11.80;99.90
16327;DHT22;34812;49.846;9.610;2022-09-09T03:05:57;11.80;99.90
16327;DHT22;34812;49.846;9.610;2022-09-09T03:06:59;11.70;99.90
16327;DHT22;34812;49.846;9.610;2022-09-09T03:08:00;11.70;99.90
16327;DHT22;34812;49.846;9.610;2022-09-09T03:09:02;11.80;99.90
16327;DHT22;34812;49.846;9.610;2022-09-09T03:10:04;11.80;99.90
16327;DHT22;34812;49.846;9.610;2022-09-09T03:11:06;11.80;99.90
16327;DHT22;34812;49.846;9.610;2022-09-09T03:12:07;11.80;99.90
16327;DHT22;34812;49.846;9.610;2022-09-09T03:13:11;11.80;99.90
16327;DHT22;34812;49.846;9.610;2022-09-09T03:14:14;11.70;99.90
16327;DHT22;34812;49.846;9.610;2022-09-09T03:15:17;11.80;99.90
16327;DHT22;34812;49.846;9.610;2022-09-09T03:16:17;11.80;99.90
16327;DHT22;34812;49.846;9.610;2022-09-09T03:17:19;11.80;99.90
16327;DHT22;34812;49.846;9.610;2022-09-09T03:18:20;11.80;99.90
16327;DHT22;34812;49.846;9.610;2022-09-09T03:19:22;11.80;99.90
16327;DHT22;34812;49.846;9.610;2022-09-09T03:20:23;11.80;99.90
16327;DHT22;34812;49.846;9.610;2022-09-09T03:21:26;11.80;99.90
16327;DHT22;34812;49.846;9.610;2022-09-09T03:22:27;11.80;99.90
16327;DHT22;34812;49.846;9.610;2022-09-09T03:23:28;11.80;99.90
16327;DHT22;34812;49.846;9.610;2022-09-09T03:24:29;11.80;99.90
16327;DHT22;34812;49.846;9.610;2022-09-09T03:25:31;11.80;99.90
16327;DHT22;34812;49.846;9.610;2022-09-09T03:26:32;11.90;99.90
16327;DHT22;34812;49.846;9.610;2022-09-09T03:27:34;11.90;99.90
16327;DHT22;34812;49.846;9.610;2022-09-09T03:28:35;11.90;99.90
16327;DHT22;34812;49.846;9.610;2022-09-09T03:29:39;11.90;99.90
16327;DHT22;34812;49.846;9.610;2022-09-09T03:30:40;11.90;99.90
16327;DHT22;34812;49.846;9.610;2022-09-09T03:31:41;12.00;99.90
16327;DHT22;34812;49.846;9.610;2022-09-09T03:32:42;12.00;99.90
16327;DHT22;34812;49.846;9.610;2022-09-09T03:33:44;12.00;99.90
16327;DHT22;34812;49.846;9.610;2022-09-09T03:34:45;12.10;99.90
16327;DHT22;34812;49.846;9.610;2022-09-09T03:35:47;12.10;99.90
16327;DHT22;34812;49.846;9.610;2022-09-09T03:36:49;12.10;99.90
16327;DHT22;34812;49.846;9.610;2022-09-09T03:37:51;12.10;99.90
16327;DHT22;34812;49.846;9.610;2022-09-09T03:38:51;12.10;99.90
16327;DHT22;34812;49.846;9.610;2022-09-09T03:39:54;12.10;99.90
16327;DHT22;34812;49.846;9.610;2022-09-09T03:40:56;12.10;99.90
16327;DHT22;34812;49.846;9.610;2022-09-09T03:41:58;12.00;99.90
16327;DHT22;34812;49.846;9.610;2022-09-09T03:42:59;12.00;99.90
16327;DHT22;34812;49.846;9.610;2022-09-09T03:44:00;12.00;99.90
16327;DHT22;34812;49.846;9.610;2022-09-09T03:45:03;12.00;99.90
16327;DHT22;34812;49.846;9.610;2022-09-09T03:46:05;12.00;99.90
16327;DHT22;34812;49.846;9.610;2022-09-09T03:47:06;12.00;99.90
16327;DHT22;34812;49.846;9.610;2022-09-09T03:48:07;12.00;99.90
16327;DHT22;34812;49.846;9.610;2022-09-09T03:49:11;12.00;99.90
16327;DHT22;34812;49.846;9.610;2022-09-09T03:50:13;12.10;99.90
16327;DHT22;34812;49.846;9.610;2022-09-09T03:51:14;12.10;99.90
16327;DHT22;34812;49.846;9.610;2022-09-09T03:52:16;12.10;99.90
16327;DHT22;34812;49.846;9.610;2022-09-09T03:53:18;12.10;99.90
16327;DHT22;34812;49.846;9.610;2022-09-09T03:54:19;12.10;99.90
16327;DHT22;34812;49.846;9.610;2022-09-09T03:55:20;12.10;99.90
16327;DHT22;34812;49.846;9.610;2022-09-09T03:56:22;12.10;99.90
16327;DHT22;34812;49.846;9.610;2022-09-09T03:57:23;12.10;99.90
16327;DHT22;34812;49.846;9.610;2022-09-09T03:58:25;12.10;99.90
16327;DHT22;34812;49.846;9.610;2022-09-09T03:59:27;12.20;99.90
16327;DHT22;34812;49.846;9.610;2022-09-09T04:00:30;12.10;99.90
16327;DHT22;34812;49.846;9.610;2022-09-09T04:01:31;12.20;99.90
16327;DHT22;34812;49.846;9.610;2022-09-09T04:02:32;12.10;99.90
16327;DHT22;34812;49.846;9.610;2022-09-09T04:03:33;12.20;99.90
16327;DHT22;34812;49.846;9.610;2022-09-09T04:04:35;12.10;99.90
16327;DHT22;34812;49.846;9.610;2022-09-09T04:05:35;12.10;99.90
16327;DHT22;34812;49.846;9.610;2022-09-09T04:06:39;12.10;99.90
16327;DHT22;34812;49.846;9.610;2022-09-09T04:07:40;12.10;99.90
16327;DHT22;34812;49.846;9.610;2022-09-09T04:08:42;12.00;99.90
16327;DHT22;34812;49.846;9.610;2022-09-09T04:09:42;12.00;99.90
16327;DHT22;34812;49.846;9.610;2022-09-09T04:10:44;11.90;99.90
16327;DHT22;34812;49.846;9.610;2022-09-09T04:11:47;11.90;99.90
16327;DHT22;34812;49.846;9.610;2022-09-09T04:12:49;11.90;99.90
16327;DHT22;34812;49.846;9.610;2022-09-09T04:13:50;11.80;99.90
16327;DHT22;34812;49.846;9.610;2022-09-09T04:14:52;11.80;99.90
16327;DHT22;34812;49.846;9.610;2022-09-09T04:15:55;11.70;99.90
16327;DHT22;34812;49.846;9.610;2022-09-09T04:16:57;11.70;99.90
16327;DHT22;34812;49.846;9.610;2022-09-09T04:17:59;11.70;99.90
16327;DHT22;34812;49.846;9.610;2022-09-09T04:19:01;11.70;99.90
16327;DHT22;34812;49.846;9.610;2022-09-09T04:20:05;11.70;99.90
16327;DHT22;34812;49.846;9.610;2022-09-09T04:21:08;11.70;99.90
16327;DHT22;34812;49.846;9.610;2022-09-09T04:22:10;11.70;99.90
16327;DHT22;34812;49.846;9.610;2022-09-09T04:23:11;11.70;99.90
16327;DHT22;34812;49.846;9.610;2022-09-09T04:24:12;11.70;99.90
16327;DHT22;34812;49.846;9.610;2022-09-09T04:25:13;11.70;99.90
16327;DHT22;34812;49.846;9.610;2022-09-09T04:26:15;11.70;99.90
16327;DHT22;34812;49.846;9.610;2022-09-09T04:27:15;11.70;99.90
16327;DHT22;34812;49.846;9.610;2022-09-09T04:28:18;11.70;99.90
16327;DHT22;34812;49.846;9.610;2022-09-09T04:29:19;11.60;99.90
16327;DHT22;34812;49.846;9.610;2022-09-09T04:30:21;11.60;99.90
16327;DHT22;34812;49.846;9.610;2022-09-09T04:31:23;11.50;99.90
16327;DHT22;34812;49.846;9.610;2022-09-09T04:32:24;11.50;99.90
16327;DHT22;34812;49.846;9.610;2022-09-09T04:33:27;11.50;99.90
16327;DHT22;34812;49.846;9.610;2022-09-09T04:34:29;11.50;99.90
16327;DHT22;34812;49.846;9.610;2022-09-09T04:35:31;11.50;99.90
16327;DHT22;34812;49.846;9.610;2022-09-09T04:36:32;11.40;99.90
16327;DHT22;34812;49.846;9.610;2022-09-09T04:37:34;11.40;99.90
16327;DHT22;34812;49.846;9.610;2022-09-09T04:38:35;11.50;99.90
16327;DHT22;34812;49.846;9.610;2022-09-09T04:39:36;11.50;99.90
16327;DHT22;34812;49.846;9.610;2022-09-09T04:40:37;11.40;99.90
16327;DHT22;34812;49.846;9.610;2022-09-09T04:41:43;11.40;99.90
16327;DHT22;34812;49.846;9.610;2022-09-09T04:42:44;11.40;99.90
16327;DHT22;34812;49.846;9.610;2022-09-09T04:43:45;11.40;99.90
16327;DHT22;34812;49.846;9.610;2022-09-09T04:44:47;11.40;99.90
16327;DHT22;34812;49.846;9.610;2022-09-09T04:45:49;11.40;99.90
16327;DHT22;34812;49.846;9.610;2022-09-09T04:46:52;11.40;99.90
16327;DHT22;34812;49.846;9.610;2022-09-09T04:47:54;11.30;99.90
16327;DHT22;34812;49.846;9.610;2022-09-09T04:48:55;11.30;99.90
16327;DHT22;34812;49.846;9.610;2022-09-09T04:49:57;11.20;99.90
16327;DHT22;34812;49.846;9.610;2022-09-09T04:50:58;11.20;99.90
16327;DHT22;34812;49.846;9.610;2022-09-09T04:52:00;11.30;99.90
16327;DHT22;34812;49.846;9.610;2022-09-09T04:53:01;11.30;99.90
16327;DHT22;34812;49.846;9.610;2022-09-09T04:54:03;11.30;99.90
16327;DHT22;34812;49.846;9.610;2022-09-09T04:55:07;11.30;99.90
16327;DHT22;34812;49.846;9.610;2022-09-09T04:56:09;11.20;99.90
16327;DHT22;34812;49.846;9.610;2022-09-09T04:57:11;11.20;99.90
16327;DHT22;34812;49.846;9.610;2022-09-09T04:58:12;11.20;99.90
16327;DHT22;34812;49.846;9.610;2022-09-09T04:59:14;11.30;99.90
16327;DHT22;34812;49.846;9.610;2022-09-09T05:00:15;11.30;99.90
16327;DHT22;34812;49.846;9.610;2022-09-09T05:01:19;11.30;99.90
16327;DHT22;34812;49.846;9.610;2022-09-09T05:02:22;11.30;99.90
16327;DHT22;34812;49.846;9.610;2022-09-09T05:03:23;11.30;99.90
16327;DHT22;34812;49.846;9.610;2022-09-09T05:04:25;11.30;99.90
16327;DHT22;34812;49.846;9.610;2022-09-09T05:05:25;11.30;99.90
16327;DHT22;34812;49.846;9.610;2022-09-09T05:06:28;11.30;99.90
16327;DHT22;34812;49.846;9.610;2022-09-09T05:07:31;11.20;99.90
16327;DHT22;34812;49.846;9.610;2022-09-09T05:08:33;11.30;99.90
16327;DHT22;34812;49.846;9.610;2022-09-09T05:09:34;11.30;99.90
16327;DHT22;34812;49.846;9.610;2022-09-09T05:10:38;11.30;99.90
16327;DHT22;34812;49.846;9.610;2022-09-09T05:11:38;11.30;99.90
16327;DHT22;34812;49.846;9.610;2022-09-09T05:12:40;11.20;99.90
16327;DHT22;34812;49.846;9.610;2022-09-09T05:13:41;11.20;99.90
16327;DHT22;34812;49.846;9.610;2022-09-09T05:14:42;11.20;99.90
16327;DHT22;34812;49.846;9.610;2022-09-09T05:15:51;11.30;99.90
16327;DHT22;34812;49.846;9.610;2022-09-09T05:16:53;11.30;99.90
16327;DHT22;34812;49.846;9.610;2022-09-09T05:17:59;11.30;99.90
16327;DHT22;34812;49.846;9.610;2022-09-09T05:19:01;11.30;99.90
16327;DHT22;34812;49.846;9.610;2022-09-09T05:20:04;11.40;99.90
16327;DHT22;34812;49.846;9.610;2022-09-09T05:21:06;11.40;99.90
16327;DHT22;34812;49.846;9.610;2022-09-09T05:22:07;11.40;99.90
16327;DHT22;34812;49.846;9.610;2022-09-09T05:23:09;11.40;99.90
16327;DHT22;34812;49.846;9.610;2022-09-09T05:24:11;11.40;99.90
16327;DHT22;34812;49.846;9.610;2022-09-09T05:25:13;11.40;99.90
16327;DHT22;34812;49.846;9.610;2022-09-09T05:26:16;11.50;99.90
16327;DHT22;34812;49.846;9.610;2022-09-09T05:27:17;11.50;99.90
16327;DHT22;34812;49.846;9.610;2022-09-09T05:28:19;11.50;99.90
16327;DHT22;34812;49.846;9.610;2022-09-09T05:29:21;11.50;99.90
16327;DHT22;34812;49.846;9.610;2022-09-09T05:30:22;11.50;99.90
16327;DHT22;34812;49.846;9.610;2022-09-09T05:31:25;11.50;99.90
16327;DHT22;34812;49.846;9.610;2022-09-09T05:32:29;11.50;99.90
16327;DHT22;34812;49.846;9.610;2022-09-09T05:33:36;11.50;99.90
16327;DHT22;34812;49.846;9.610;2022-09-09T05:34:38;11.50;99.90
16327;DHT22;34812;49.846;9.610;2022-09-09T05:35:39;11.50;99.90
16327;DHT22;34812;49.846;9.610;2022-09-09T05:36:41;11.60;99.90
16327;DHT22;34812;49.846;9.610;2022-09-09T05:37:41;11.60;99.90
16327;DHT22;34812;49.846;9.610;2022-09-09T05:38:44;11.60;99.90
16327;DHT22;34812;49.846;9.610;2022-09-09T05:39:45;11.70;99.90
16327;DHT22;34812;49.846;9.610;2022-09-09T05:40:47;11.80;99.90
16327;DHT22;34812;49.846;9.610;2022-09-09T05:41:48;11.80;99.90
16327;DHT22;34812;49.846;9.610;2022-09-09T05:42:50;11.90;99.90
16327;DHT22;34812;49.846;9.610;2022-09-09T05:43:51;11.90;99.90
16327;DHT22;34812;49.846;9.610;2022-09-09T05:44:52;11.90;99.90
16327;DHT22;34812;49.846;9.610;2022-09-09T05:46:01;11.90;99.90
16327;DHT22;34812;49.846;9.610;2022-09-09T05:47:04;11.90;99.90
16327;DHT22;34812;49.846;9.610;2022-09-09T05:48:05;11.90;99.90
16327;DHT22;34812;49.846;9.610;2022-09-09T05:49:09;12.00;99.90
16327;DHT22;34812;49.846;9.610;2022-09-09T05:50:11;12.00;99.90
16327;DHT22;34812;49.846;9.610;2022-09-09T05:51:14;12.00;99.90
16327;DHT22;34812;49.846;9.610;2022-09-09T05:52:17;12.00;99.90
16327;DHT22;34812;49.846;9.610;2022-09-09T05:53:18;12.10;99.90
16327;DHT22;34812;49.846;9.610;2022-09-09T05:54:20;12.10;99.90
16327;DHT22;34812;49.846;9.610;2022-09-09T05:55:21;12.10;99.90
16327;DHT22;34812;49.846;9.610;2022-09-09T05:56:25;12.20;99.90
16327;DHT22;34812;49.846;9.610;2022-09-09T05:57:26;12.20;99.90
16327;DHT22;34812;49.846;9.610;2022-09-09T05:58:27;12.30;99.90
16327;DHT22;34812;49.846;9.610;2022-09-09T05:59:28;12.30;99.90
16327;DHT22;34812;49.846;9.610;2022-09-09T06:00:30;12.40;99.90
16327;DHT22;34812;49.846;9.610;2022-09-09T06:01:34;12.40;99.90
16327;DHT22;34812;49.846;9.610;2022-09-09T06:02:35;12.50;99.90
16327;DHT22;34812;49.846;9.610;2022-09-09T06:03:39;12.60;99.90
16327;DHT22;34812;49.846;9.610;2022-09-09T06:04:42;12.60;99.90
16327;DHT22;34812;49.846;9.610;2022-09-09T06:05:44;12.70;99.90
16327;DHT22;34812;49.846;9.610;2022-09-09T06:06:45;12.80;99.90
16327;DHT22;34812;49.846;9.610;2022-09-09T06:07:46;12.80;99.90
16327;DHT22;34812;49.846;9.610;2022-09-09T06:08:48;12.90;99.90
16327;DHT22;34812;49.846;9.610;2022-09-09T06:09:51;12.90;99.90
16327;DHT22;34812;49.846;9.610;2022-09-09T06:10:52;13.00;99.90
16327;DHT22;34812;49.846;9.610;2022-09-09T06:11:53;13.00;99.90
16327;DHT22;34812;49.846;9.610;2022-09-09T06:12:55;13.10;99.90
16327;DHT22;34812;49.846;9.610;2022-09-09T06:13:57;13.10;99.90
16327;DHT22;34812;49.846;9.610;2022-09-09T06:14:58;13.10;99.90
16327;DHT22;34812;49.846;9.610;2022-09-09T06:16:00;13.20;99.90
16327;DHT22;34812;49.846;9.610;2022-09-09T06:17:00;13.20;99.90
16327;DHT22;34812;49.846;9.610;2022-09-09T06:18:03;13.20;99.90
16327;DHT22;34812;49.846;9.610;2022-09-09T06:19:03;13.10;99.90
16327;DHT22;34812;49.846;9.610;2022-09-09T06:20:07;13.10;99.90
16327;DHT22;34812;49.846;9.610;2022-09-09T06:21:14;13.10;99.90
16327;DHT22;34812;49.846;9.610;2022-09-09T06:22:15;13.00;99.90
16327;DHT22;34812;49.846;9.610;2022-09-09T06:23:17;13.00;99.90
16327;DHT22;34812;49.846;9.610;2022-09-09T06:24:18;13.00;99.90
16327;DHT22;34812;49.846;9.610;2022-09-09T06:25:20;12.90;99.90
16327;DHT22;34812;49.846;9.610;2022-09-09T06:26:23;12.90;99.90
16327;DHT22;34812;49.846;9.610;2022-09-09T06:27:27;12.90;99.90
16327;DHT22;34812;49.846;9.610;2022-09-09T06:28:28;12.80;99.90
16327;DHT22;34812;49.846;9.610;2022-09-09T06:29:29;12.90;99.90
16327;DHT22;34812;49.846;9.610;2022-09-09T06:30:31;12.80;99.90
16327;DHT22;34812;49.846;9.610;2022-09-09T06:31:33;12.90;99.90
16327;DHT22;34812;49.846;9.610;2022-09-09T06:32:37;12.90;99.90
16327;DHT22;34812;49.846;9.610;2022-09-09T06:33:39;12.90;99.90
16327;DHT22;34812;49.846;9.610;2022-09-09T06:34:42;12.90;99.90
16327;DHT22;34812;49.846;9.610;2022-09-09T06:35:51;12.90;99.90
16327;DHT22;34812;49.846;9.610;2022-09-09T06:36:53;12.90;99.90
16327;DHT22;34812;49.846;9.610;2022-09-09T06:37:54;12.90;99.90
16327;DHT22;34812;49.846;9.610;2022-09-09T06:38:56;13.00;99.90
16327;DHT22;34812;49.846;9.610;2022-09-09T06:39:56;13.00;99.90
16327;DHT22;34812;49.846;9.610;2022-09-09T06:40:59;13.10;99.90
16327;DHT22;34812;49.846;9.610;2022-09-09T06:42:00;13.10;99.90
16327;DHT22;34812;49.846;9.610;2022-09-09T06:43:01;13.20;99.90
16327;DHT22;34812;49.846;9.610;2022-09-09T06:44:02;13.20;99.90
16327;DHT22;34812;49.846;9.610;2022-09-09T06:45:05;13.20;99.90